Terminal Aerodrome Forecast
Issued by NWS Sterling, VA

Current Version | Previous Version | Text Only | Print | Product List | Glossary Off
Versions: 1 2 3 4 5 6 7 8 9 10 11 12 13

000
FTUS41 KLWX 212300
TAFMRB
TAF
KMRB 212334Z 2200/2224 00000KT P6SM SKC
     FM220900 00000KT P6SM BKN050
     FM222000 VRB03KT P6SM -RA OVC030
     FM222300 VRB03KT P6SM -FZRA OVC020=

USA.gov is the U.S. government's official web portal to all federal, state and local government web resources and services.